createdAt,value
2018-08-30T00:00:05.753Z,28.70
2018-08-30T00:02:33.834Z,28.83
2018-08-30T00:05:01.965Z,29.13
2018-08-30T00:07:30.258Z,28.93
2018-08-30T00:09:58.350Z,28.00
2018-08-30T00:12:26.461Z,28.20
2018-08-30T00:14:54.693Z,29.10
2018-08-30T00:17:22.814Z,28.43
2018-08-30T00:19:51.084Z,29.30
2018-08-30T00:22:19.124Z,29.23
2018-08-30T00:24:47.205Z,29.50
2018-08-30T00:27:15.300Z,28.80
2018-08-30T00:29:43.464Z,29.90
2018-08-30T00:32:12.521Z,29.10
2018-08-30T00:34:40.719Z,30.60
2018-08-30T00:37:08.784Z,29.10
2018-08-30T00:39:36.899Z,28.93
2018-08-30T00:42:05.074Z,28.57
2018-08-30T00:44:33.246Z,28.70
2018-08-30T00:47:01.409Z,28.10
2018-08-30T00:49:29.529Z,28.50
2018-08-30T00:51:57.678Z,27.20
2018-08-30T00:54:25.800Z,28.00
2018-08-30T00:56:53.937Z,28.10
2018-08-30T00:59:22.100Z,26.70
2018-08-30T01:01:50.259Z,28.70
2018-08-30T01:04:18.523Z,28.20
2018-08-30T01:06:46.616Z,28.60
2018-08-30T01:09:14.651Z,28.70
2018-08-30T01:11:42.748Z,28.17
2018-08-30T01:14:10.933Z,29.13
2018-08-30T01:16:39.029Z,27.80
2018-08-30T01:19:07.132Z,28.13
2018-08-30T01:21:35.275Z,28.53
2018-08-30T01:24:03.412Z,29.03
2018-08-30T01:26:31.488Z,29.00
2018-08-30T01:28:59.680Z,28.43
2018-08-30T01:31:27.863Z,29.37
2018-08-30T01:33:55.987Z,28.37
2018-08-30T01:36:24.127Z,26.63
2018-08-30T01:38:52.261Z,27.87
2018-08-30T01:41:20.444Z,26.80
2018-08-30T01:43:48.636Z,28.00
2018-08-30T01:46:16.825Z,27.83
2018-08-30T01:48:44.992Z,27.70
2018-08-30T01:51:13.140Z,28.07
2018-08-30T01:53:41.397Z,28.40
2018-08-30T01:56:09.489Z,27.80
2018-08-30T01:58:37.664Z,29.03
2018-08-30T02:01:06.241Z,31.50
2018-08-30T02:03:34.387Z,27.33
2018-08-30T02:06:02.528Z,27.23
2018-08-30T02:08:30.693Z,27.90
2018-08-30T02:10:58.865Z,27.23
2018-08-30T02:13:27.305Z,27.57
2018-08-30T02:15:55.396Z,26.80
2018-08-30T02:18:23.491Z,25.23
2018-08-30T02:20:51.611Z,28.37
2018-08-30T02:23:19.768Z,27.30
2018-08-30T02:25:47.878Z,26.17
2018-08-30T02:28:16.148Z,27.27
2018-08-30T02:30:44.239Z,26.80
2018-08-30T02:33:12.392Z,26.23
2018-08-30T02:35:40.520Z,26.63
2018-08-30T02:38:08.760Z,26.53
2018-08-30T02:40:36.904Z,27.57
2018-08-30T02:43:05.338Z,26.80
2018-08-30T02:45:33.487Z,26.80
2018-08-30T02:48:01.762Z,27.30
2018-08-30T02:50:29.969Z,27.40
2018-08-30T02:52:58.105Z,28.00
2018-08-30T02:55:26.243Z,27.23
2018-08-30T02:57:54.560Z,28.57
2018-08-30T03:00:23.347Z,26.37
2018-08-30T03:02:51.525Z,25.53
2018-08-30T03:05:19.692Z,28.37
2018-08-30T03:07:47.809Z,24.50
2018-08-30T03:10:15.903Z,26.40
2018-08-30T03:12:44.226Z,26.10
2018-08-30T03:15:13.591Z,26.70
2018-08-30T03:17:41.651Z,25.60
2018-08-30T03:20:11.234Z,26.23
2018-08-30T03:22:40.059Z,26.40
2018-08-30T03:25:08.205Z,26.83
2018-08-30T03:27:36.352Z,25.43
2018-08-30T03:30:05.167Z,25.77
2018-08-30T03:32:33.337Z,26.63
2018-08-30T03:35:01.483Z,25.60
2018-08-30T03:37:29.611Z,26.27
2018-08-30T03:39:57.759Z,25.67
2018-08-30T03:42:25.876Z,26.73
2018-08-30T03:44:54.034Z,26.17
2018-08-30T03:47:22.177Z,25.53
2018-08-30T03:49:50.292Z,26.20
2018-08-30T03:52:18.386Z,25.23
2018-08-30T03:54:46.508Z,27.40
2018-08-30T03:57:14.644Z,25.60
2018-08-30T03:59:42.742Z,27.13
2018-08-30T04:02:10.863Z,26.50
2018-08-30T04:04:38.945Z,26.17
2018-08-30T04:07:07.087Z,26.40
2018-08-30T04:09:35.237Z,28.10
2018-08-30T04:12:05.701Z,27.20
2018-08-30T04:14:34.038Z,27.70
2018-08-30T04:17:02.226Z,25.93
2018-08-30T04:19:30.313Z,26.27
2018-08-30T04:21:58.409Z,26.20
2018-08-30T04:24:26.507Z,25.80
2018-08-30T04:26:54.667Z,25.90
2018-08-30T04:29:22.796Z,25.73
2018-08-30T04:31:50.932Z,26.20
2018-08-30T04:34:19.112Z,25.93
2018-08-30T04:36:47.378Z,25.97
2018-08-30T04:39:15.585Z,26.87
2018-08-30T04:41:43.757Z,26.50
2018-08-30T04:44:11.813Z,25.30
2018-08-30T04:46:39.968Z,26.80
2018-08-30T04:49:08.145Z,26.53
2018-08-30T04:51:36.355Z,26.50
2018-08-30T04:54:04.641Z,26.07
2018-08-30T04:56:32.715Z,25.90
2018-08-30T04:59:00.780Z,25.47
2018-08-30T05:01:28.941Z,24.63
2018-08-30T05:03:57.423Z,26.90
2018-08-30T05:06:25.649Z,26.63
2018-08-30T05:08:53.710Z,26.20
2018-08-30T05:11:21.832Z,26.70
2018-08-30T05:13:50.055Z,27.07
2018-08-30T05:16:18.177Z,26.93
2018-08-30T05:18:46.237Z,26.00
2018-08-30T05:21:14.420Z,27.03
2018-08-30T05:23:42.617Z,27.17
2018-08-30T05:26:10.772Z,27.33
2018-08-30T05:28:39.203Z,27.50
2018-08-30T05:31:07.308Z,26.97
2018-08-30T05:33:35.695Z,26.47
2018-08-30T05:36:03.977Z,25.60
2018-08-30T05:38:32.146Z,25.97
2018-08-30T05:41:00.316Z,24.67
2018-08-30T05:43:28.600Z,26.10
2018-08-30T05:45:56.751Z,26.10
2018-08-30T05:48:24.857Z,26.40
2018-08-30T05:50:53.061Z,27.60
2018-08-30T05:53:21.222Z,26.20
2018-08-30T05:55:49.393Z,25.60
2018-08-30T05:58:17.583Z,26.83
2018-08-30T06:00:45.739Z,25.33
2018-08-30T06:03:13.915Z,25.13
2018-08-30T06:05:42.077Z,22.80
2018-08-30T06:08:10.309Z,26.23
2018-08-30T06:10:38.649Z,25.33
2018-08-30T06:13:06.902Z,23.73
2018-08-30T06:15:35.074Z,24.37
2018-08-30T06:18:03.383Z,22.40
2018-08-30T06:20:31.574Z,23.20
2018-08-30T06:22:59.699Z,22.90
2018-08-30T06:25:27.869Z,21.70
2018-08-30T06:27:56.061Z,20.27
2018-08-30T06:30:24.288Z,27.83
2018-08-30T06:32:52.458Z,22.10
2018-08-30T06:35:20.531Z,22.17
2018-08-30T06:37:48.645Z,19.87
2018-08-30T06:40:16.778Z,19.00
2018-08-30T06:42:44.916Z,18.90
2018-08-30T06:45:13.017Z,17.03
2018-08-30T06:47:41.136Z,18.27
2018-08-30T06:50:09.410Z,18.70
2018-08-30T06:52:37.581Z,18.73
2018-08-30T06:55:05.784Z,15.47
2018-08-30T06:57:33.893Z,18.40
2018-08-30T07:00:02.049Z,18.63
2018-08-30T07:02:30.285Z,17.80
2018-08-30T07:04:58.416Z,15.57
2018-08-30T07:07:26.486Z,16.23
2018-08-30T07:09:54.705Z,15.50
2018-08-30T07:12:22.927Z,16.43
2018-08-30T07:14:51.121Z,14.60
2018-08-30T07:17:19.290Z,14.80
2018-08-30T07:19:47.497Z,15.73
2018-08-30T07:22:15.610Z,16.80
2018-08-30T07:24:43.749Z,15.03
2018-08-30T07:27:11.926Z,14.70
2018-08-30T07:29:40.165Z,16.30
2018-08-30T07:32:08.321Z,16.53
2018-08-30T07:34:36.528Z,16.07
2018-08-30T07:37:04.724Z,17.40
2018-08-30T07:39:32.908Z,17.97
2018-08-30T07:42:01.235Z,16.63
2018-08-30T07:44:29.611Z,19.13
2018-08-30T07:46:57.669Z,19.00
2018-08-30T07:49:25.829Z,19.13
2018-08-30T07:51:54.000Z,19.90
2018-08-30T07:54:22.129Z,20.27
2018-08-30T07:56:50.308Z,19.80
2018-08-30T07:59:18.471Z,20.00
2018-08-30T08:01:46.591Z,21.60
2018-08-30T08:04:14.839Z,21.33
2018-08-30T08:06:43.002Z,19.97
2018-08-30T08:09:11.308Z,20.53
2018-08-30T08:11:39.479Z,20.43
2018-08-30T08:14:08.534Z,20.83
2018-08-30T08:16:36.606Z,20.47
2018-08-30T08:19:04.799Z,21.57
2018-08-30T08:21:32.888Z,22.20
2018-08-30T08:24:01.090Z,20.00
2018-08-30T08:26:29.228Z,20.23
2018-08-30T08:28:57.448Z,17.17
2018-08-30T08:31:25.553Z,17.30
2018-08-30T08:33:54.037Z,16.47
2018-08-30T08:36:22.246Z,18.70
2018-08-30T08:38:50.465Z,17.90
2018-08-30T08:41:18.600Z,18.03
2018-08-30T08:43:46.868Z,20.47
2018-08-30T08:46:15.068Z,21.43
2018-08-30T08:48:43.199Z,20.60
2018-08-30T08:51:11.485Z,22.17
2018-08-30T08:53:39.719Z,22.43
2018-08-30T08:56:07.816Z,21.77
2018-08-30T08:58:35.921Z,23.10
2018-08-30T09:01:04.100Z,23.40
2018-08-30T09:03:32.254Z,24.20
2018-08-30T09:06:00.419Z,26.00
2018-08-30T09:08:28.508Z,24.83
2018-08-30T09:10:56.949Z,26.00
2018-08-30T09:13:25.176Z,23.60
2018-08-30T09:15:53.289Z,29.20
2018-08-30T09:18:21.600Z,30.80
2018-08-30T09:20:49.889Z,27.93
2018-08-30T09:23:18.065Z,25.37
2018-08-30T09:25:46.370Z,25.20
2018-08-30T09:28:14.508Z,29.10
2018-08-30T09:30:42.813Z,33.87
2018-08-30T09:33:10.984Z,49.63
2018-08-30T09:35:39.198Z,34.30
2018-08-30T09:38:07.320Z,29.93
2018-08-30T09:40:35.759Z,27.17
2018-08-30T09:43:04.008Z,25.90
2018-08-30T09:45:32.253Z,25.87
2018-08-30T09:48:00.452Z,26.10
2018-08-30T09:50:28.567Z,28.77
2018-08-30T09:52:56.668Z,27.30
2018-08-30T09:55:24.917Z,29.63
2018-08-30T09:57:53.021Z,28.37
2018-08-30T10:00:26.813Z,30.30
2018-08-30T10:02:54.909Z,30.67
2018-08-30T10:05:23.182Z,29.43
2018-08-30T10:07:51.351Z,32.40
2018-08-30T10:10:19.489Z,30.17
2018-08-30T10:12:47.616Z,33.80
2018-08-30T10:15:15.834Z,30.13
2018-08-30T10:17:43.952Z,29.00
2018-08-30T10:20:12.145Z,30.97
2018-08-30T10:22:40.308Z,30.63
2018-08-30T10:25:08.479Z,30.57
2018-08-30T10:27:36.796Z,28.10
2018-08-30T10:30:04.969Z,30.20
2018-08-30T10:32:33.136Z,32.80
2018-08-30T10:35:01.340Z,32.63
2018-08-30T10:37:29.443Z,30.70
2018-08-30T10:39:57.651Z,34.77
2018-08-30T10:42:25.828Z,29.93
2018-08-30T10:44:53.933Z,33.10
2018-08-30T10:47:22.010Z,29.97
2018-08-30T10:49:50.149Z,29.33
2018-08-30T10:52:18.294Z,37.53
2018-08-30T10:54:46.493Z,30.17
2018-08-30T10:57:14.678Z,37.33
2018-08-30T10:59:42.884Z,35.97
2018-08-30T11:02:11.049Z,30.03
2018-08-30T11:04:40.036Z,32.70
2018-08-30T11:07:08.192Z,31.63
2018-08-30T11:09:36.340Z,29.50
2018-08-30T11:12:04.532Z,33.10
2018-08-30T11:14:32.714Z,31.03
2018-08-30T11:17:00.948Z,31.93
2018-08-30T11:19:29.059Z,31.00
2018-08-30T11:21:57.166Z,34.43
2018-08-30T11:24:25.276Z,28.50
2018-08-30T11:26:53.494Z,33.80
2018-08-30T11:29:21.613Z,30.50
2018-08-30T11:31:49.804Z,30.30
2018-08-30T11:34:17.945Z,31.93
2018-08-30T11:36:46.026Z,32.37
2018-08-30T11:39:14.219Z,33.60
2018-08-30T11:41:42.398Z,31.67
2018-08-30T11:44:10.484Z,30.37
2018-08-30T11:46:38.707Z,30.03
2018-08-30T11:49:06.814Z,31.73
2018-08-30T11:51:35.121Z,28.67
2018-08-30T11:54:03.249Z,29.57
2018-08-30T11:56:31.437Z,31.17
2018-08-30T11:58:59.560Z,28.87
2018-08-30T12:01:27.722Z,30.80
2018-08-30T12:03:57.315Z,27.27
2018-08-30T12:06:25.592Z,31.23
2018-08-30T12:08:53.747Z,27.40
2018-08-30T12:11:22.078Z,29.23
2018-08-30T12:13:50.288Z,28.13
2018-08-30T12:16:18.468Z,26.07
2018-08-30T12:18:46.580Z,24.23
2018-08-30T12:21:14.806Z,23.47
2018-08-30T12:23:43.128Z,26.10
2018-08-30T12:26:11.304Z,24.00
2018-08-30T12:28:39.621Z,23.47
2018-08-30T12:31:07.724Z,22.50
2018-08-30T12:33:35.924Z,19.93
2018-08-30T12:36:04.334Z,19.57
2018-08-30T12:38:32.497Z,20.20
2018-08-30T12:41:00.803Z,16.80
2018-08-30T12:43:29.088Z,16.90
2018-08-30T12:45:57.213Z,17.30
2018-08-30T12:48:25.368Z,15.27
2018-08-30T12:50:53.636Z,15.30
2018-08-30T12:53:21.965Z,15.53
2018-08-30T12:55:50.091Z,15.07
2018-08-30T12:58:18.327Z,15.80
2018-08-30T13:00:46.398Z,16.20
2018-08-30T13:03:14.729Z,15.20
2018-08-30T13:05:43.012Z,15.63
2018-08-30T13:08:11.115Z,15.93
2018-08-30T13:10:39.469Z,16.73
2018-08-30T13:13:07.646Z,16.50
2018-08-30T13:15:35.920Z,17.37
2018-08-30T13:18:04.058Z,16.90
2018-08-30T13:20:32.318Z,15.90
2018-08-30T13:23:00.413Z,15.03
2018-08-30T13:25:28.650Z,14.63
2018-08-30T13:27:56.827Z,15.67
2018-08-30T13:30:25.348Z,13.30
2018-08-30T13:32:54.174Z,13.20
2018-08-30T13:35:22.573Z,14.10
2018-08-30T13:37:50.887Z,12.77
2018-08-30T13:40:18.951Z,13.00
2018-08-30T13:42:47.087Z,12.97
2018-08-30T13:45:15.149Z,12.53
2018-08-30T13:47:43.390Z,12.70
2018-08-30T13:50:11.566Z,13.20
2018-08-30T13:52:39.863Z,13.43
2018-08-30T13:55:07.911Z,14.03
2018-08-30T13:57:36.345Z,14.30
2018-08-30T14:00:04.748Z,15.37
2018-08-30T14:02:32.629Z,15.00
2018-08-30T14:05:00.750Z,14.90
2018-08-30T14:07:28.982Z,16.33
2018-08-30T14:09:57.075Z,15.00
2018-08-30T14:12:25.477Z,16.20
2018-08-30T14:14:53.787Z,17.90
2018-08-30T14:17:21.732Z,15.50
2018-08-30T14:19:50.184Z,15.33
2018-08-30T14:22:18.434Z,17.07
2018-08-30T14:24:46.642Z,15.80
2018-08-30T14:27:14.853Z,15.27
2018-08-30T14:29:43.031Z,15.20
2018-08-30T14:32:11.168Z,14.73
2018-08-30T14:34:39.356Z,15.67
2018-08-30T14:37:07.638Z,16.50
2018-08-30T14:39:35.803Z,17.57
2018-08-30T14:42:04.069Z,17.50
2018-08-30T14:44:32.437Z,17.93
2018-08-30T14:47:00.635Z,18.37
2018-08-30T14:49:28.796Z,18.67
2018-08-30T14:51:57.008Z,18.53
2018-08-30T14:54:25.240Z,18.27
2018-08-30T14:56:53.411Z,18.40
2018-08-30T14:59:21.757Z,19.03
2018-08-30T15:01:49.900Z,19.40
2018-08-30T15:04:18.056Z,18.63
2018-08-30T15:06:46.270Z,18.60
2018-08-30T15:09:14.389Z,18.23
2018-08-30T15:11:42.633Z,18.93
2018-08-30T15:14:10.851Z,19.00
2018-08-30T15:16:39.111Z,16.57
2018-08-30T15:19:07.314Z,17.93
2018-08-30T15:21:35.412Z,16.90
2018-08-30T15:24:03.592Z,18.57
2018-08-30T15:26:31.843Z,19.53
2018-08-30T15:29:00.197Z,18.97
2018-08-30T15:31:28.380Z,21.40
2018-08-30T15:33:56.646Z,19.77
2018-08-30T15:36:25.124Z,19.27
2018-08-30T15:38:53.409Z,19.50
2018-08-30T15:41:21.678Z,19.57
2018-08-30T15:43:49.765Z,18.10
2018-08-30T15:46:17.903Z,19.60
2018-08-30T15:48:46.192Z,19.30
2018-08-30T15:51:14.296Z,19.20
2018-08-30T15:53:42.485Z,20.20
2018-08-30T15:56:10.600Z,19.30
2018-08-30T15:58:38.712Z,19.07
2018-08-30T16:01:06.888Z,19.90
2018-08-30T16:03:35.156Z,20.50
2018-08-30T16:06:04.078Z,19.43
2018-08-30T16:08:32.486Z,19.37
2018-08-30T16:11:01.088Z,21.53
2018-08-30T16:13:29.216Z,19.87
2018-08-30T16:15:57.418Z,20.33
2018-08-30T16:18:25.738Z,20.03
2018-08-30T16:20:53.809Z,21.23
2018-08-30T16:23:24.894Z,20.07
2018-08-30T16:25:53.012Z,19.67
2018-08-30T16:28:21.841Z,19.20
2018-08-30T16:30:50.037Z,19.37
2018-08-30T16:33:18.380Z,19.40
2018-08-30T16:35:46.615Z,21.93
2018-08-30T16:38:14.969Z,20.17
2018-08-30T16:40:43.455Z,20.80
2018-08-30T16:43:11.765Z,21.70
2018-08-30T16:45:39.969Z,21.47
2018-08-30T16:48:08.222Z,21.67
2018-08-30T16:50:36.480Z,21.77
2018-08-30T16:53:05.141Z,21.20
2018-08-30T16:55:33.723Z,20.77
2018-08-30T16:58:01.869Z,21.87
2018-08-30T17:00:29.972Z,21.10
2018-08-30T17:02:58.829Z,20.60
2018-08-30T17:05:27.399Z,21.30
2018-08-30T17:07:55.568Z,20.17
2018-08-30T17:10:23.774Z,21.07
2018-08-30T17:12:51.876Z,21.50
2018-08-30T17:15:19.987Z,19.50
2018-08-30T17:17:48.295Z,21.00
2018-08-30T17:20:18.613Z,20.10
2018-08-30T17:22:46.804Z,20.67
2018-08-30T17:25:15.015Z,20.20
2018-08-30T17:27:43.169Z,20.37
2018-08-30T17:30:11.312Z,21.63
2018-08-30T17:32:39.491Z,21.00
2018-08-30T17:35:07.733Z,19.87
2018-08-30T17:37:36.001Z,18.97
2018-08-30T17:40:04.179Z,20.13
2018-08-30T17:42:32.444Z,20.90
2018-08-30T17:45:00.644Z,23.40
2018-08-30T17:47:28.865Z,22.13
2018-08-30T17:49:57.098Z,21.43
2018-08-30T17:52:25.279Z,21.90
2018-08-30T17:54:53.480Z,23.37
2018-08-30T17:57:21.641Z,22.23
2018-08-30T17:59:49.926Z,22.63
2018-08-30T18:02:18.157Z,22.70
2018-08-30T18:04:46.577Z,22.43
2018-08-30T18:07:14.958Z,21.77
2018-08-30T18:09:42.959Z,22.83
2018-08-30T18:12:11.102Z,22.67
2018-08-30T18:14:39.243Z,25.50
2018-08-30T18:17:07.410Z,22.33
2018-08-30T18:19:35.503Z,22.47
2018-08-30T18:22:03.701Z,22.63
2018-08-30T18:24:31.842Z,22.20
2018-08-30T18:26:59.962Z,23.90
2018-08-30T18:29:28.178Z,22.83
2018-08-30T18:31:56.263Z,23.10
2018-08-30T18:34:24.518Z,22.40
2018-08-30T18:36:52.626Z,23.50
2018-08-30T18:39:20.863Z,25.70
2018-08-30T18:41:48.949Z,23.33
2018-08-30T18:44:17.043Z,22.73
2018-08-30T18:46:45.366Z,22.30
2018-08-30T18:49:13.603Z,22.13
2018-08-30T18:51:41.747Z,24.13
2018-08-30T18:54:09.872Z,23.27
2018-08-30T18:56:37.981Z,21.13
2018-08-30T18:59:06.088Z,22.70
2018-08-30T19:01:34.280Z,22.07
2018-08-30T19:04:02.437Z,21.40
2018-08-30T19:06:30.694Z,21.67
2018-08-30T19:08:58.879Z,22.87
2018-08-30T19:11:27.029Z,21.70
2018-08-30T19:13:55.234Z,21.97
2018-08-30T19:16:28.942Z,22.13
2018-08-30T19:19:02.656Z,20.67
2018-08-30T19:21:30.888Z,22.60
2018-08-30T19:23:59.128Z,22.63
2018-08-30T19:26:27.504Z,20.07
2018-08-30T19:28:55.642Z,21.10
2018-08-30T19:31:23.712Z,21.00
2018-08-30T19:33:51.790Z,20.57
2018-08-30T19:36:25.335Z,19.70
2018-08-30T19:38:53.548Z,19.97
2018-08-30T19:41:22.717Z,19.10
2018-08-30T19:43:51.904Z,20.63
2018-08-30T19:46:20.776Z,19.20
2018-08-30T19:48:48.955Z,19.70
2018-08-30T19:51:17.071Z,17.43
2018-08-30T19:53:45.266Z,20.07
2018-08-30T19:56:13.947Z,18.17
2018-08-30T19:58:42.335Z,18.70
2018-08-30T20:01:10.418Z,16.53
2018-08-30T20:03:38.547Z,16.67
2018-08-30T20:06:07.141Z,17.57
2018-08-30T20:08:35.352Z,18.17
2018-08-30T20:11:03.705Z,19.23
2018-08-30T20:13:32.213Z,17.27
2018-08-30T20:16:00.303Z,16.80
2018-08-30T20:18:28.483Z,17.30
2018-08-30T20:20:56.684Z,18.60
2018-08-30T20:23:24.820Z,16.73
2018-08-30T20:25:52.930Z,17.73
2018-08-30T20:28:21.125Z,16.80
2018-08-30T20:30:49.253Z,17.60
2018-08-30T20:33:17.554Z,17.90
2018-08-30T20:35:45.758Z,16.63
2018-08-30T20:38:13.922Z,17.13
2018-08-30T20:40:42.091Z,17.47
2018-08-30T20:43:10.245Z,16.43
2018-08-30T20:45:38.520Z,16.73
2018-08-30T20:48:06.799Z,16.57
2018-08-30T20:50:34.996Z,16.20
2018-08-30T20:53:03.143Z,16.23
2018-08-30T20:55:31.334Z,15.40
2018-08-30T20:57:59.525Z,16.50
2018-08-30T21:00:27.753Z,17.17
2018-08-30T21:02:55.873Z,16.33
2018-08-30T21:05:24.112Z,16.03
2018-08-30T21:07:52.240Z,13.57
2018-08-30T21:10:20.370Z,14.87
2018-08-30T21:12:48.540Z,15.83
2018-08-30T21:15:16.748Z,14.47
2018-08-30T21:17:44.956Z,13.37
2018-08-30T21:20:13.017Z,13.53
2018-08-30T21:22:41.226Z,15.17
2018-08-30T21:25:09.582Z,15.50
2018-08-30T21:27:37.925Z,15.60
2018-08-30T21:30:06.257Z,14.90
2018-08-30T21:32:34.493Z,14.37
2018-08-30T21:35:02.615Z,15.87
2018-08-30T21:37:30.668Z,13.87
2018-08-30T21:39:59.088Z,13.90
2018-08-30T21:42:27.787Z,15.10
2018-08-30T21:44:56.025Z,15.23
2018-08-30T21:47:24.192Z,15.20
2018-08-30T21:49:52.360Z,13.10
2018-08-30T21:52:20.438Z,15.30
2018-08-30T21:54:48.940Z,14.40
2018-08-30T21:57:17.088Z,14.30
2018-08-30T21:59:45.209Z,13.10
2018-08-30T22:02:13.381Z,14.53
2018-08-30T22:04:41.536Z,13.80
2018-08-30T22:07:09.680Z,13.40
2018-08-30T22:09:37.957Z,14.73
2018-08-30T22:12:06.029Z,14.23
2018-08-30T22:14:34.115Z,14.80
2018-08-30T22:17:02.200Z,14.30
2018-08-30T22:19:30.268Z,14.40
2018-08-30T22:21:58.453Z,14.70
2018-08-30T22:24:26.638Z,15.20
2018-08-30T22:26:54.720Z,14.87
2018-08-30T22:29:22.926Z,13.33
2018-08-30T22:31:51.138Z,13.97
2018-08-30T22:34:19.525Z,13.60
2018-08-30T22:36:47.866Z,13.80
2018-08-30T22:39:16.080Z,14.93
2018-08-30T22:41:44.329Z,14.37
2018-08-30T22:44:12.391Z,15.17
2018-08-30T22:46:40.451Z,12.43
2018-08-30T22:49:08.547Z,14.33
2018-08-30T22:51:36.693Z,13.80
2018-08-30T22:54:05.300Z,13.20
2018-08-30T22:56:33.634Z,12.33
2018-08-30T22:59:01.777Z,12.87
2018-08-30T23:04:20.654Z,14.17
2018-08-30T23:06:49.137Z,12.90
2018-08-30T23:09:17.166Z,14.00
2018-08-30T23:11:45.316Z,13.53
2018-08-30T23:14:13.458Z,13.07
2018-08-30T23:16:41.660Z,13.07
2018-08-30T23:19:09.763Z,13.23
2018-08-30T23:21:37.995Z,15.23
2018-08-30T23:24:06.529Z,13.23
2018-08-30T23:26:34.641Z,13.93
2018-08-30T23:29:02.895Z,13.60
2018-08-30T23:31:31.016Z,14.80
2018-08-30T23:33:59.323Z,14.20
2018-08-30T23:36:27.501Z,14.30
2018-08-30T23:38:55.582Z,13.27
2018-08-30T23:41:23.797Z,13.57
2018-08-30T23:43:51.964Z,14.07
2018-08-30T23:46:20.168Z,13.83
2018-08-30T23:48:48.325Z,13.63
